createdAt,value
2022-12-09T00:00:13.669Z,15.97
2022-12-09T00:02:40.880Z,18.47
2022-12-09T00:05:08.547Z,22.03
2022-12-09T00:07:36.429Z,18.70
2022-12-09T00:10:05.956Z,21.30
2022-12-09T00:12:33.334Z,21.97
2022-12-09T00:15:00.584Z,17.83
2022-12-09T00:17:27.589Z,16.07
2022-12-09T00:19:54.738Z,15.77
2022-12-09T00:22:21.936Z,16.17
2022-12-09T00:24:48.889Z,19.37
2022-12-09T00:27:15.714Z,17.50
2022-12-09T00:29:42.530Z,22.87
2022-12-09T00:32:09.573Z,21.73
2022-12-09T00:34:36.468Z,19.70
2022-12-09T00:37:03.516Z,19.57
2022-12-09T00:39:30.408Z,19.53
2022-12-09T00:41:57.222Z,22.27
2022-12-09T00:44:24.066Z,17.33
2022-12-09T00:46:50.911Z,20.03
2022-12-09T00:49:17.960Z,17.07
2022-12-09T00:51:45.137Z,18.13
2022-12-09T00:54:12.957Z,18.57
2022-12-09T00:56:39.949Z,22.30
2022-12-09T00:59:06.727Z,16.67
2022-12-09T01:01:33.647Z,20.70
2022-12-09T01:04:02.514Z,19.73
2022-12-09T01:06:29.964Z,18.37
2022-12-09T01:08:56.975Z,19.73
2022-12-09T01:11:28.401Z,22.23
2022-12-09T01:14:00.660Z,19.60
2022-12-09T01:16:31.087Z,21.93
2022-12-09T01:19:01.745Z,23.43
2022-12-09T01:21:29.664Z,21.30
2022-12-09T01:23:56.834Z,21.43
2022-12-09T01:26:23.655Z,18.80
2022-12-09T01:28:52.841Z,24.10
2022-12-09T01:31:24.137Z,22.90
2022-12-09T01:33:51.819Z,19.20
2022-12-09T01:36:24.526Z,24.27
2022-12-09T01:38:51.987Z,16.70
2022-12-09T01:41:21.945Z,17.73
2022-12-09T01:44:21.362Z,19.67
2022-12-09T01:46:48.716Z,20.40
2022-12-09T01:49:34.483Z,19.07
2022-12-09T01:52:20.430Z,18.20
2022-12-09T01:54:50.150Z,18.43
2022-12-09T01:57:17.255Z,22.27
2022-12-09T01:59:46.028Z,21.93
2022-12-09T02:02:17.790Z,20.33
2022-12-09T02:04:49.218Z,20.37
2022-12-09T02:07:19.474Z,15.13
2022-12-09T02:09:47.115Z,20.13
2022-12-09T02:12:37.829Z,19.77
2022-12-09T02:15:21.049Z,18.30
2022-12-09T02:18:03.615Z,19.30
2022-12-09T02:20:51.480Z,22.00
2022-12-09T02:23:36.640Z,18.07
2022-12-09T02:26:44.607Z,23.47
2022-12-09T02:30:13.040Z,20.20
2022-12-09T02:33:05.984Z,23.67
2022-12-09T02:35:50.524Z,22.13
2022-12-09T02:38:23.051Z,18.07
2022-12-09T02:41:12.467Z,22.97
2022-12-09T02:43:49.890Z,19.00
2022-12-09T02:46:21.804Z,18.73
2022-12-09T02:48:55.983Z,18.77
2022-12-09T02:51:26.877Z,23.83
2022-12-09T02:54:03.357Z,22.00
2022-12-09T02:56:31.259Z,25.27
2022-12-09T02:58:58.075Z,21.00
2022-12-09T03:01:51.112Z,20.97
2022-12-09T03:04:24.317Z,23.30
2022-12-09T03:06:54.323Z,21.90
2022-12-09T03:09:29.486Z,18.63
2022-12-09T03:12:04.047Z,18.53
2022-12-09T03:14:41.914Z,19.57
2022-12-09T03:17:23.667Z,21.87
2022-12-09T03:19:59.636Z,20.47
2022-12-09T03:22:33.968Z,24.67
2022-12-09T03:25:12.431Z,20.00
2022-12-09T03:27:50.505Z,17.57
2022-12-09T03:30:18.601Z,19.00
2022-12-09T03:32:47.295Z,21.07
2022-12-09T03:35:32.370Z,21.67
2022-12-09T03:38:03.312Z,19.80
2022-12-09T03:40:33.046Z,21.17
2022-12-09T03:43:17.047Z,19.03
2022-12-09T03:45:44.039Z,21.73
2022-12-09T03:48:12.225Z,23.17
2022-12-09T03:50:54.913Z,18.63
2022-12-09T03:53:43.164Z,23.13
2022-12-09T03:56:21.179Z,22.77
2022-12-09T03:58:53.830Z,26.60
2022-12-09T04:01:24.658Z,23.90
2022-12-09T04:03:56.228Z,55.53
2022-12-09T04:06:23.872Z,75.30
2022-12-09T04:08:50.987Z,58.07
2022-12-09T04:11:17.928Z,63.97
2022-12-09T04:13:44.898Z,70.17
2022-12-09T04:16:11.801Z,42.57
2022-12-09T04:18:39.107Z,70.90
2022-12-09T04:21:13.015Z,46.50
2022-12-09T04:23:43.230Z,38.20
2022-12-09T04:26:17.070Z,47.60
2022-12-09T04:28:44.110Z,37.37
2022-12-09T04:31:13.771Z,46.93
2022-12-09T04:33:41.799Z,64.87
2022-12-09T04:36:13.513Z,95.20
2022-12-09T04:38:41.998Z,78.77
2022-12-09T04:41:09.855Z,94.93
2022-12-09T04:43:37.061Z,129.67
2022-12-09T04:46:10.437Z,157.97
2022-12-09T04:48:38.012Z,117.30
2022-12-09T04:51:05.024Z,137.67
2022-12-09T04:53:31.848Z,93.57
2022-12-09T04:56:01.209Z,83.23
2022-12-09T04:58:28.544Z,101.27
2022-12-09T05:00:56.017Z,90.80
2022-12-09T05:03:23.928Z,110.60
2022-12-09T05:05:51.462Z,120.87
2022-12-09T05:08:18.978Z,92.70
2022-12-09T05:10:50.750Z,80.70
2022-12-09T05:13:18.313Z,62.80
2022-12-09T05:15:45.176Z,92.90
2022-12-09T05:18:12.179Z,59.30
2022-12-09T05:20:41.215Z,70.53
2022-12-09T05:23:09.901Z,116.90
2022-12-09T05:25:37.259Z,69.90
2022-12-09T05:28:04.565Z,45.87
2022-12-09T05:30:31.836Z,57.10
2022-12-09T05:32:59.158Z,78.63
2022-12-09T05:35:26.228Z,111.87
2022-12-09T05:37:53.257Z,74.07
2022-12-09T05:40:20.569Z,66.77
2022-12-09T05:42:47.963Z,48.50
2022-12-09T05:45:15.014Z,68.10
2022-12-09T05:47:42.732Z,57.17
2022-12-09T05:50:12.532Z,60.60
2022-12-09T05:52:40.300Z,46.73
2022-12-09T05:55:09.681Z,64.97
2022-12-09T05:57:37.470Z,64.20
2022-12-09T06:00:08.106Z,66.87
2022-12-09T06:02:35.401Z,57.80
2022-12-09T06:05:03.200Z,80.00
2022-12-09T06:07:30.534Z,116.40
2022-12-09T06:09:58.200Z,79.73
2022-12-09T06:12:25.190Z,85.90
2022-12-09T06:14:52.704Z,77.83
2022-12-09T06:17:20.723Z,49.73
2022-12-09T06:19:47.776Z,68.03
2022-12-09T06:22:15.121Z,64.27
2022-12-09T06:24:42.202Z,65.80
2022-12-09T06:27:09.263Z,82.77
2022-12-09T06:29:36.572Z,50.93
2022-12-09T06:32:04.750Z,79.70
2022-12-09T06:34:32.057Z,79.83
2022-12-09T06:36:59.468Z,48.10
2022-12-09T06:39:26.763Z,42.47
2022-12-09T06:41:53.844Z,44.93
2022-12-09T06:44:23.844Z,55.83
2022-12-09T06:47:32.834Z,38.87
2022-12-09T06:50:06.680Z,37.40
2022-12-09T06:52:34.498Z,44.33
2022-12-09T06:55:02.108Z,46.77
2022-12-09T06:57:29.465Z,77.83
2022-12-09T06:59:56.812Z,64.57
2022-12-09T07:02:23.905Z,33.27
2022-12-09T07:04:55.607Z,34.77
2022-12-09T07:07:23.352Z,47.43
2022-12-09T07:09:50.521Z,54.73
2022-12-09T07:12:18.386Z,68.70
2022-12-09T07:14:45.640Z,80.73
2022-12-09T07:17:20.846Z,41.67
2022-12-09T07:19:48.258Z,38.27
2022-12-09T07:22:15.969Z,25.97
2022-12-09T07:24:43.303Z,25.40
2022-12-09T07:27:19.323Z,35.37
2022-12-09T07:29:47.248Z,41.13
2022-12-09T07:32:15.050Z,49.43
2022-12-09T07:34:42.514Z,45.73
2022-12-09T07:37:09.995Z,71.43
2022-12-09T07:39:37.083Z,67.93
2022-12-09T07:42:05.167Z,81.33
2022-12-09T07:44:32.392Z,85.60
2022-12-09T07:46:59.343Z,61.67
2022-12-09T07:49:26.618Z,58.87
2022-12-09T07:51:53.723Z,79.93
2022-12-09T07:54:21.317Z,44.40
2022-12-09T07:56:48.920Z,55.67
2022-12-09T07:59:16.982Z,46.27
2022-12-09T08:01:45.362Z,90.60
2022-12-09T08:04:13.190Z,37.77
2022-12-09T08:06:40.585Z,30.57
2022-12-09T08:09:13.356Z,33.73
2022-12-09T08:11:40.961Z,37.57
2022-12-09T08:14:12.869Z,30.70
2022-12-09T08:16:42.611Z,40.03
2022-12-09T08:19:10.603Z,34.80
2022-12-09T08:21:38.348Z,38.37
2022-12-09T08:24:07.831Z,37.97
2022-12-09T08:26:37.586Z,50.07
2022-12-09T08:29:10.019Z,42.87
2022-12-09T08:31:40.932Z,36.07
2022-12-09T08:34:09.986Z,30.53
2022-12-09T08:36:37.754Z,31.30
2022-12-09T08:39:05.334Z,32.57
2022-12-09T08:41:37.832Z,32.63
2022-12-09T08:44:08.881Z,30.80
2022-12-09T08:46:39.307Z,32.27
2022-12-09T08:49:07.580Z,34.93
2022-12-09T08:51:35.836Z,29.63
2022-12-09T08:54:04.234Z,36.97
2022-12-09T08:56:32.075Z,34.40
2022-12-09T08:58:59.015Z,37.17
2022-12-09T09:01:32.792Z,38.90
2022-12-09T09:04:08.553Z,36.97
2022-12-09T09:06:38.840Z,33.43
2022-12-09T09:09:09.062Z,29.80
2022-12-09T09:11:37.496Z,30.37
2022-12-09T09:14:07.623Z,30.37
2022-12-09T09:16:38.073Z,33.27
2022-12-09T09:19:06.167Z,33.90
2022-12-09T09:21:34.944Z,37.20
2022-12-09T09:24:03.142Z,32.10
2022-12-09T09:26:30.294Z,31.93
2022-12-09T09:28:57.983Z,40.10
2022-12-09T09:31:26.012Z,36.70
2022-12-09T09:33:54.002Z,29.90
2022-12-09T09:36:24.732Z,30.40
2022-12-09T09:38:55.056Z,29.73
2022-12-09T09:41:34.038Z,26.97
2022-12-09T09:44:04.730Z,27.03
2022-12-09T09:46:45.032Z,33.93
2022-12-09T09:49:37.722Z,32.43
2022-12-09T09:52:16.891Z,33.77
2022-12-09T09:54:44.353Z,31.57
2022-12-09T09:57:40.432Z,35.97
2022-12-09T10:01:08.844Z,34.57
2022-12-09T10:03:39.786Z,34.07
2022-12-09T10:06:29.220Z,38.10
2022-12-09T10:09:16.060Z,33.33
2022-12-09T10:12:01.968Z,40.50
2022-12-09T10:14:47.760Z,38.00
2022-12-09T10:17:41.989Z,42.17
2022-12-09T10:20:28.640Z,47.23
2022-12-09T10:23:20.009Z,40.20
2022-12-09T10:25:56.764Z,47.43
2022-12-09T10:28:31.300Z,44.80
2022-12-09T10:30:58.368Z,52.90
2022-12-09T10:33:40.961Z,42.97
2022-12-09T10:36:25.983Z,44.53
2022-12-09T10:38:55.423Z,43.40
2022-12-09T10:42:13.536Z,48.00
2022-12-09T10:44:41.113Z,43.63
2022-12-09T10:47:29.149Z,47.50
2022-12-09T10:50:01.948Z,49.67
2022-12-09T10:52:37.025Z,43.37
2022-12-09T10:55:07.376Z,46.53
2022-12-09T10:57:34.711Z,41.80
2022-12-09T11:00:34.739Z,44.00
2022-12-09T11:03:03.534Z,44.33
2022-12-09T11:05:34.713Z,48.17
2022-12-09T11:08:02.903Z,41.83
2022-12-09T11:10:31.051Z,42.07
2022-12-09T11:13:08.979Z,44.27
2022-12-09T11:15:49.657Z,46.47
2022-12-09T11:18:33.837Z,47.80
2022-12-09T11:21:05.083Z,41.27
2022-12-09T11:23:34.641Z,49.27
2022-12-09T11:26:22.382Z,45.97
2022-12-09T11:29:13.407Z,39.23
2022-12-09T11:31:42.073Z,36.87
2022-12-09T11:34:26.249Z,37.80
2022-12-09T11:36:58.072Z,44.53
2022-12-09T11:48:59.402Z,29.33
2022-12-09T11:51:40.409Z,27.90
2022-12-09T11:54:31.974Z,34.13
2022-12-09T11:57:00.473Z,31.17
2022-12-09T11:59:42.004Z,33.10
2022-12-09T12:03:02.865Z,37.87
2022-12-09T12:05:41.840Z,35.00
2022-12-09T12:08:28.237Z,36.07
2022-12-09T12:11:10.541Z,34.17
2022-12-09T12:13:51.767Z,37.93
2022-12-09T12:16:39.207Z,32.23
2022-12-09T12:19:40.639Z,32.87
2022-12-09T12:22:55.022Z,38.63
2022-12-09T12:25:40.846Z,32.70
2022-12-09T12:29:07.728Z,36.07
2022-12-09T12:31:46.392Z,35.90
2022-12-09T12:34:47.084Z,40.10
2022-12-09T12:37:30.398Z,37.33
2022-12-09T12:40:26.815Z,35.77
2022-12-09T12:44:18.342Z,35.87
2022-12-09T12:47:07.139Z,40.67
2022-12-09T12:50:14.868Z,38.00
2022-12-09T12:53:06.064Z,41.63
2022-12-09T12:56:00.337Z,36.67
2022-12-09T12:58:40.205Z,41.63
2022-12-09T13:01:25.317Z,37.93
2022-12-09T13:04:13.842Z,34.00
2022-12-09T13:06:51.987Z,40.23
2022-12-09T13:09:33.373Z,35.17
2022-12-09T13:12:46.045Z,31.73
2022-12-09T13:15:17.163Z,37.30
2022-12-09T13:17:48.037Z,32.77
2022-12-09T13:20:46.771Z,33.67
2022-12-09T13:23:19.347Z,39.13
2022-12-09T13:26:15.519Z,36.20
2022-12-09T13:29:23.360Z,37.93
2022-12-09T13:32:34.311Z,31.50
2022-12-09T13:35:37.446Z,39.00
2022-12-09T13:38:04.372Z,32.43
2022-12-09T13:40:38.830Z,29.30
2022-12-09T13:43:21.305Z,28.90
2022-12-09T13:45:51.034Z,36.20
2022-12-09T13:48:17.789Z,26.17
2022-12-09T13:50:56.016Z,25.10
2022-12-09T13:53:50.448Z,20.17
2022-12-09T13:56:21.987Z,14.13
2022-12-09T13:59:07.736Z,12.20
2022-12-09T14:01:49.771Z,11.07
2022-12-09T14:04:29.165Z,12.20
2022-12-09T14:07:13.967Z,14.57
2022-12-09T14:09:52.756Z,11.30
2022-12-09T14:12:25.588Z,10.17
2022-12-09T14:15:01.631Z,30.63
2022-12-09T14:17:31.073Z,10.10
2022-12-09T14:20:21.246Z,9.87
2022-12-09T14:23:06.493Z,12.30
2022-12-09T14:25:35.858Z,11.23
2022-12-09T14:28:24.255Z,15.10
2022-12-09T14:31:03.384Z,29.70
2022-12-09T14:33:41.650Z,18.97
2022-12-09T14:36:14.432Z,13.37
2022-12-09T14:39:24.262Z,12.33
2022-12-09T14:42:08.421Z,15.77
2022-12-09T14:45:21.742Z,17.50
2022-12-09T14:47:48.792Z,13.67
2022-12-09T14:50:23.900Z,10.57
2022-12-09T14:52:54.367Z,14.87
2022-12-09T14:55:25.355Z,13.10
2022-12-09T14:57:55.699Z,13.83
2022-12-09T15:00:29.148Z,13.37
2022-12-09T15:03:30.748Z,18.17
2022-12-09T15:06:02.182Z,13.63
2022-12-09T15:08:37.005Z,14.40
2022-12-09T15:11:34.815Z,19.33
2022-12-09T15:14:27.200Z,23.20
2022-12-09T15:16:57.122Z,17.53
2022-12-09T15:19:59.100Z,22.73
2022-12-09T15:22:28.946Z,17.23
2022-12-09T15:24:55.806Z,17.30
2022-12-09T15:27:25.201Z,20.23
2022-12-09T15:29:53.981Z,18.40
2022-12-09T15:32:30.187Z,15.87
2022-12-09T15:35:21.506Z,18.33
2022-12-09T15:37:52.264Z,23.17
2022-12-09T15:40:22.345Z,16.90
2022-12-09T15:42:55.878Z,21.40
2022-12-09T15:45:27.789Z,25.47
2022-12-09T15:48:15.401Z,22.50
2022-12-09T15:51:07.257Z,22.43
2022-12-09T15:53:44.630Z,20.40
2022-12-09T15:56:20.725Z,19.23
2022-12-09T15:58:56.797Z,20.10
2022-12-09T16:01:34.645Z,22.43
2022-12-09T16:04:04.731Z,17.67
2022-12-09T16:06:37.497Z,22.37
2022-12-09T16:09:14.584Z,20.37
2022-12-09T16:11:48.394Z,20.53
2022-12-09T16:14:18.400Z,17.83
2022-12-09T16:16:48.860Z,18.47
2022-12-09T16:19:30.838Z,18.10
2022-12-09T16:22:32.891Z,30.10
2022-12-09T16:25:20.099Z,24.37
2022-12-09T16:27:50.266Z,20.23
2022-12-09T16:30:24.517Z,24.20
2022-12-09T16:32:58.220Z,25.63
2022-12-09T16:35:44.973Z,24.23
2022-12-09T16:38:11.680Z,20.00
2022-12-09T16:40:44.745Z,20.20
2022-12-09T16:43:20.915Z,20.93
2022-12-09T16:45:53.100Z,21.43
2022-12-09T16:48:21.954Z,27.80
2022-12-09T16:51:05.922Z,22.83
2022-12-09T16:53:39.875Z,25.77
2022-12-09T16:56:16.843Z,26.00
2022-12-09T16:58:43.804Z,26.80
2022-12-09T17:01:17.768Z,26.57
2022-12-09T17:03:49.830Z,29.97
2022-12-09T17:06:20.352Z,28.40
2022-12-09T17:08:47.464Z,29.53
2022-12-09T17:11:16.845Z,36.07
2022-12-09T17:13:43.674Z,35.97
2022-12-09T17:16:10.761Z,32.27
2022-12-09T17:18:37.671Z,29.67
2022-12-09T17:21:12.525Z,31.83
2022-12-09T17:23:40.984Z,44.03
2022-12-09T17:26:13.422Z,35.70
2022-12-09T17:28:42.134Z,30.87
2022-12-09T17:31:18.096Z,71.70
2022-12-09T17:33:45.402Z,26.33
2022-12-09T17:36:14.839Z,30.87
2022-12-09T17:38:42.516Z,52.43
2022-12-09T17:41:14.769Z,64.60
2022-12-09T17:43:43.019Z,67.37
2022-12-09T17:46:11.379Z,43.10
2022-12-09T17:48:40.018Z,42.93
2022-12-09T17:51:15.215Z,31.73
2022-12-09T17:53:43.484Z,37.07
2022-12-09T17:56:17.178Z,29.63
2022-12-09T17:58:44.318Z,41.90
2022-12-09T18:01:19.483Z,36.70
2022-12-09T18:03:56.059Z,41.90
2022-12-09T18:06:27.934Z,42.03
2022-12-09T18:08:54.896Z,37.83
2022-12-09T18:11:22.489Z,31.03
2022-12-09T18:13:49.604Z,26.17
2022-12-09T18:16:17.806Z,23.43
2022-12-09T18:18:45.592Z,26.13
2022-12-09T18:21:16.008Z,26.23
2022-12-09T18:23:43.757Z,24.93
2022-12-09T18:26:15.156Z,21.10
2022-12-09T18:28:42.758Z,15.57
2022-12-09T18:31:13.270Z,22.10
2022-12-09T18:33:40.831Z,22.03
2022-12-09T18:36:16.463Z,20.63
2022-12-09T18:38:43.904Z,20.77
2022-12-09T18:41:17.502Z,20.67
2022-12-09T18:43:46.987Z,19.20
2022-12-09T18:46:23.849Z,27.30
2022-12-09T18:48:57.790Z,19.03
2022-12-09T18:51:25.502Z,19.77
2022-12-09T18:53:52.738Z,18.90
2022-12-09T18:56:19.655Z,23.43
2022-12-09T18:59:06.004Z,24.20
2022-12-09T19:01:38.921Z,20.90
2022-12-09T19:04:08.699Z,25.50
2022-12-09T19:06:39.663Z,25.53
2022-12-09T19:09:26.005Z,23.10
2022-12-09T19:11:53.898Z,27.03
2022-12-09T19:14:22.903Z,28.13
2022-12-09T19:16:51.869Z,25.80
2022-12-09T19:19:25.580Z,32.80
2022-12-09T19:21:53.533Z,26.43
2022-12-09T19:24:28.575Z,32.13
2022-12-09T19:26:57.756Z,27.97
2022-12-09T19:29:26.523Z,29.03
2022-12-09T19:31:54.977Z,28.93
2022-12-09T19:34:24.608Z,29.73
2022-12-09T19:36:54.800Z,30.67
2022-12-09T19:39:24.861Z,29.93
2022-12-09T19:41:52.867Z,25.00
2022-12-09T19:44:44.408Z,24.80
2022-12-09T19:47:07.703Z,26.03
2022-12-09T19:49:34.724Z,25.17
2022-12-09T19:52:05.917Z,24.20
2022-12-09T19:54:32.746Z,23.07
2022-12-09T19:56:59.638Z,27.60
2022-12-09T19:59:27.688Z,27.60
2022-12-09T20:01:55.066Z,26.93
2022-12-09T20:04:48.200Z,28.17
2022-12-09T20:07:13.254Z,28.40
2022-12-09T20:09:40.129Z,29.13
2022-12-09T20:12:07.040Z,32.00
2022-12-09T20:14:33.987Z,30.07
2022-12-09T20:17:00.816Z,31.47
2022-12-09T20:19:27.937Z,30.07
2022-12-09T20:21:54.766Z,33.80
2022-12-09T20:24:21.613Z,39.37
2022-12-09T20:26:48.452Z,37.77
2022-12-09T20:29:15.265Z,40.57
2022-12-09T20:31:43.061Z,38.47
2022-12-09T20:34:16.338Z,43.13
2022-12-09T20:36:45.269Z,46.47
2022-12-09T20:39:19.965Z,29.97
2022-12-09T20:41:48.715Z,26.13
2022-12-09T20:44:17.784Z,23.23
2022-12-09T20:46:49.440Z,22.87
2022-12-09T20:49:17.381Z,45.53
2022-12-09T20:51:45.383Z,35.07
2022-12-09T20:54:13.452Z,40.67
2022-12-09T20:56:40.921Z,49.57
2022-12-09T20:59:09.964Z,53.43
2022-12-09T21:01:37.941Z,52.73
2022-12-09T21:04:07.167Z,42.17
2022-12-09T21:06:38.092Z,32.73
2022-12-09T21:09:10.429Z,34.37
2022-12-09T21:11:37.821Z,35.90
2022-12-09T21:14:06.842Z,37.87
2022-12-09T21:16:39.251Z,35.40
2022-12-09T21:19:10.393Z,36.33
2022-12-09T21:21:41.182Z,40.93
2022-12-09T21:24:11.948Z,49.00
2022-12-09T21:26:40.033Z,49.73
2022-12-09T21:29:08.468Z,53.77
2022-12-09T21:31:38.487Z,55.50
2022-12-09T21:34:07.200Z,48.83
2022-12-09T21:36:38.802Z,40.17
2022-12-09T21:39:07.066Z,28.40
2022-12-09T21:41:36.315Z,26.87
2022-12-09T21:44:05.033Z,37.37
2022-12-09T21:46:35.983Z,36.27
2022-12-09T21:49:06.093Z,29.07
2022-12-09T21:51:35.228Z,28.93
2022-12-09T21:54:02.984Z,26.27
2022-12-09T21:56:33.358Z,23.60
2022-12-09T21:59:00.858Z,29.37
2022-12-09T22:01:34.387Z,29.37
2022-12-09T22:04:02.828Z,32.90
2022-12-09T22:06:30.436Z,28.03
2022-12-09T22:09:02.227Z,28.37
2022-12-09T22:11:33.404Z,30.27
2022-12-09T22:14:01.480Z,31.43
2022-12-09T22:16:33.673Z,26.07
2022-12-09T22:19:02.891Z,30.57
2022-12-09T22:21:33.531Z,28.93
2022-12-09T22:24:04.094Z,29.17
2022-12-09T22:26:31.865Z,28.43
2022-12-09T22:29:01.876Z,31.17
2022-12-09T22:31:36.665Z,32.00
2022-12-09T22:34:23.711Z,33.87
2022-12-09T22:36:50.506Z,32.97
2022-12-09T22:39:21.649Z,33.63
2022-12-09T22:41:48.699Z,34.40
2022-12-09T22:44:18.946Z,33.10
2022-12-09T22:46:46.705Z,32.77
2022-12-09T22:49:15.746Z,34.87
2022-12-09T22:51:43.984Z,50.23
2022-12-09T22:54:11.555Z,40.13
2022-12-09T22:56:41.983Z,60.73
2022-12-09T22:59:09.991Z,73.90
2022-12-09T23:01:38.395Z,70.90
2022-12-09T23:04:07.910Z,67.63
2022-12-09T23:06:37.501Z,84.97
2022-12-09T23:09:10.771Z,66.83
2022-12-09T23:11:37.644Z,80.20
2022-12-09T23:14:04.968Z,90.13
2022-12-09T23:16:31.934Z,109.10
2022-12-09T23:18:59.492Z,55.83
2022-12-09T23:21:33.665Z,74.80
2022-12-09T23:24:08.126Z,128.13
2022-12-09T23:26:37.863Z,121.47
2022-12-09T23:29:07.471Z,114.40
2022-12-09T23:31:37.689Z,140.50
2022-12-09T23:34:06.758Z,89.73
2022-12-09T23:36:39.261Z,136.10
2022-12-09T23:39:11.043Z,126.93
2022-12-09T23:41:42.843Z,139.83
2022-12-09T23:44:13.674Z,121.60
2022-12-09T23:46:40.758Z,99.00
2022-12-09T23:49:08.667Z,70.43
2022-12-09T23:51:39.732Z,87.33
2022-12-09T23:54:08.732Z,63.23
2022-12-09T23:56:39.317Z,88.97
2022-12-09T23:59:10.872Z,108.83
